Terminal Aerodrome Forecast
Issued by NWS St Louis, MO

Home | Current Version | Previous Version | Text Only | Print | Product List | Glossary On
Versions: 1 2 3 4 5 6 7 8 9 10 11 12 13 14 15 16 17 18 19 20 21 22 23
000
FTUS43 KLSX 160900 AAA
TAFSTL
TAF AMD
KSTL 160909Z 1609/1712 VRB03KT P6SM SCT050
     FM160930 VRB03KT P6SM BKN006 BKN020
      TEMPO 1610/1614 5SM BR
     FM161500 VRB05KT P6SM BKN015
     FM161700 VRB03KT P6SM SCT030=

USA.gov is the U.S. government's official web portal to all federal, state and local government web resources and services.